sensor_id;sensor_type;location;lat;lon;timestamp;P1;durP1;ratioP1;P2;durP2;ratioP2
5805;SDS011;2929;50.810;8.342;2023-03-23T00:02:22;2.10;;;1.73;;
5805;SDS011;2929;50.810;8.342;2023-03-23T00:04:51;4.00;;;1.40;;
5805;SDS011;2929;50.810;8.342;2023-03-23T00:07:19;5.57;;;1.93;;
5805;SDS011;2929;50.810;8.342;2023-03-23T00:09:47;2.10;;;1.50;;
5805;SDS011;2929;50.810;8.342;2023-03-23T00:12:18;7.13;;;2.90;;
5805;SDS011;2929;50.810;8.342;2023-03-23T00:14:46;4.20;;;1.60;;
5805;SDS011;2929;50.810;8.342;2023-03-23T00:17:14;4.00;;;1.50;;
5805;SDS011;2929;50.810;8.342;2023-03-23T00:19:41;3.70;;;1.50;;
5805;SDS011;2929;50.810;8.342;2023-03-23T00:22:14;3.57;;;1.20;;
5805;SDS011;2929;50.810;8.342;2023-03-23T00:24:44;3.83;;;1.50;;
5805;SDS011;2929;50.810;8.342;2023-03-23T00:27:11;3.00;;;1.60;;
5805;SDS011;2929;50.810;8.342;2023-03-23T00:29:41;6.70;;;1.27;;
5805;SDS011;2929;50.810;8.342;2023-03-23T00:32:10;2.20;;;1.23;;
5805;SDS011;2929;50.810;8.342;2023-03-23T00:34:40;1.63;;;1.20;;
5805;SDS011;2929;50.810;8.342;2023-03-23T00:37:09;2.10;;;1.37;;
5805;SDS011;2929;50.810;8.342;2023-03-23T00:39:38;3.37;;;1.70;;
5805;SDS011;2929;50.810;8.342;2023-03-23T00:42:11;1.90;;;1.33;;
5805;SDS011;2929;50.810;8.342;2023-03-23T00:44:39;2.07;;;1.30;;
5805;SDS011;2929;50.810;8.342;2023-03-23T00:47:06;3.67;;;1.17;;
5805;SDS011;2929;50.810;8.342;2023-03-23T00:49:36;2.07;;;1.43;;
5805;SDS011;2929;50.810;8.342;2023-03-23T00:52:05;2.67;;;1.30;;
5805;SDS011;2929;50.810;8.342;2023-03-23T00:54:32;1.43;;;0.90;;
5805;SDS011;2929;50.810;8.342;2023-03-23T00:57:01;0.97;;;0.93;;
5805;SDS011;2929;50.810;8.342;2023-03-23T00:59:28;2.37;;;1.40;;
5805;SDS011;2929;50.810;8.342;2023-03-23T01:01:55;1.50;;;1.40;;
5805;SDS011;2929;50.810;8.342;2023-03-23T01:04:22;1.30;;;1.20;;
5805;SDS011;2929;50.810;8.342;2023-03-23T01:06:50;0.90;;;0.90;;
5805;SDS011;2929;50.810;8.342;2023-03-23T01:09:17;2.77;;;1.23;;
5805;SDS011;2929;50.810;8.342;2023-03-23T01:11:47;1.60;;;1.40;;
5805;SDS011;2929;50.810;8.342;2023-03-23T01:14:17;1.87;;;1.57;;
5805;SDS011;2929;50.810;8.342;2023-03-23T01:16:48;1.60;;;1.40;;
5805;SDS011;2929;50.810;8.342;2023-03-23T01:19:16;5.53;;;2.00;;
5805;SDS011;2929;50.810;8.342;2023-03-23T01:21:43;1.97;;;1.50;;
5805;SDS011;2929;50.810;8.342;2023-03-23T01:24:10;6.67;;;1.93;;
5805;SDS011;2929;50.810;8.342;2023-03-23T01:26:37;2.13;;;1.13;;
5805;SDS011;2929;50.810;8.342;2023-03-23T01:29:04;5.40;;;1.30;;
5805;SDS011;2929;50.810;8.342;2023-03-23T01:31:34;1.57;;;1.47;;
5805;SDS011;2929;50.810;8.342;2023-03-23T01:34:04;5.07;;;1.70;;
5805;SDS011;2929;50.810;8.342;2023-03-23T01:36:31;5.50;;;1.43;;
5805;SDS011;2929;50.810;8.342;2023-03-23T01:39:01;1.23;;;1.13;;
5805;SDS011;2929;50.810;8.342;2023-03-23T01:41:30;7.90;;;1.57;;
5805;SDS011;2929;50.810;8.342;2023-03-23T01:44:01;2.87;;;1.60;;
5805;SDS011;2929;50.810;8.342;2023-03-23T01:46:51;2.60;;;1.43;;
5805;SDS011;2929;50.810;8.342;2023-03-23T01:49:21;2.30;;;1.23;;
5805;SDS011;2929;50.810;8.342;2023-03-23T01:51:52;2.27;;;1.40;;
5805;SDS011;2929;50.810;8.342;2023-03-23T01:54:23;1.73;;;0.90;;
5805;SDS011;2929;50.810;8.342;2023-03-23T01:56:53;1.60;;;1.30;;
5805;SDS011;2929;50.810;8.342;2023-03-23T01:59:25;5.90;;;1.87;;
5805;SDS011;2929;50.810;8.342;2023-03-23T02:02:13;2.83;;;1.40;;
5805;SDS011;2929;50.810;8.342;2023-03-23T02:04:42;1.27;;;1.17;;
5805;SDS011;2929;50.810;8.342;2023-03-23T02:07:09;1.27;;;1.17;;
5805;SDS011;2929;50.810;8.342;2023-03-23T02:09:39;4.50;;;1.23;;
5805;SDS011;2929;50.810;8.342;2023-03-23T02:12:06;2.33;;;1.20;;
5805;SDS011;2929;50.810;8.342;2023-03-23T02:14:35;1.70;;;1.40;;
5805;SDS011;2929;50.810;8.342;2023-03-23T02:17:04;1.73;;;1.23;;
5805;SDS011;2929;50.810;8.342;2023-03-23T02:19:44;4.20;;;1.33;;
5805;SDS011;2929;50.810;8.342;2023-03-23T02:22:32;2.47;;;1.43;;
5805;SDS011;2929;50.810;8.342;2023-03-23T02:25:22;3.53;;;1.33;;
5805;SDS011;2929;50.810;8.342;2023-03-23T02:28:11;1.40;;;1.03;;
5805;SDS011;2929;50.810;8.342;2023-03-23T02:31:09;2.80;;;1.20;;
5805;SDS011;2929;50.810;8.342;2023-03-23T02:33:48;5.20;;;1.50;;
5805;SDS011;2929;50.810;8.342;2023-03-23T02:36:20;1.77;;;1.30;;
5805;SDS011;2929;50.810;8.342;2023-03-23T02:38:56;2.10;;;1.40;;
5805;SDS011;2929;50.810;8.342;2023-03-23T02:41:27;1.50;;;1.40;;
5805;SDS011;2929;50.810;8.342;2023-03-23T02:43:57;1.50;;;1.30;;
5805;SDS011;2929;50.810;8.342;2023-03-23T02:46:25;2.20;;;1.80;;
5805;SDS011;2929;50.810;8.342;2023-03-23T02:48:54;2.80;;;1.43;;
5805;SDS011;2929;50.810;8.342;2023-03-23T02:51:25;1.80;;;1.30;;
5805;SDS011;2929;50.810;8.342;2023-03-23T02:53:53;2.93;;;1.47;;
5805;SDS011;2929;50.810;8.342;2023-03-23T02:56:22;1.50;;;1.00;;
5805;SDS011;2929;50.810;8.342;2023-03-23T02:58:51;2.17;;;1.30;;
5805;SDS011;2929;50.810;8.342;2023-03-23T03:04:26;3.13;;;1.67;;
5805;SDS011;2929;50.810;8.342;2023-03-23T03:06:58;1.63;;;1.47;;
5805;SDS011;2929;50.810;8.342;2023-03-23T03:09:40;2.80;;;1.30;;
5805;SDS011;2929;50.810;8.342;2023-03-23T03:12:14;1.50;;;1.40;;
5805;SDS011;2929;50.810;8.342;2023-03-23T03:14:49;5.83;;;1.60;;
5805;SDS011;2929;50.810;8.342;2023-03-23T03:17:24;4.90;;;1.43;;
5805;SDS011;2929;50.810;8.342;2023-03-23T03:19:54;3.97;;;1.47;;
5805;SDS011;2929;50.810;8.342;2023-03-23T03:22:25;3.80;;;1.90;;
5805;SDS011;2929;50.810;8.342;2023-03-23T03:24:55;1.60;;;1.50;;
5805;SDS011;2929;50.810;8.342;2023-03-23T03:27:24;1.60;;;1.50;;
5805;SDS011;2929;50.810;8.342;2023-03-23T03:30:15;7.40;;;2.20;;
5805;SDS011;2929;50.810;8.342;2023-03-23T03:32:47;1.60;;;1.50;;
5805;SDS011;2929;50.810;8.342;2023-03-23T03:35:18;6.83;;;1.67;;
5805;SDS011;2929;50.810;8.342;2023-03-23T03:37:45;6.33;;;1.40;;
5805;SDS011;2929;50.810;8.342;2023-03-23T03:40:13;7.33;;;1.90;;
5805;SDS011;2929;50.810;8.342;2023-03-23T03:42:43;2.23;;;1.70;;
5805;SDS011;2929;50.810;8.342;2023-03-23T03:45:13;1.63;;;1.30;;
5805;SDS011;2929;50.810;8.342;2023-03-23T03:47:42;3.03;;;1.70;;
5805;SDS011;2929;50.810;8.342;2023-03-23T03:50:10;5.10;;;1.53;;
5805;SDS011;2929;50.810;8.342;2023-03-23T03:52:39;2.20;;;1.50;;
5805;SDS011;2929;50.810;8.342;2023-03-23T03:55:07;3.80;;;1.30;;
5805;SDS011;2929;50.810;8.342;2023-03-23T03:57:38;2.40;;;1.67;;
5805;SDS011;2929;50.810;8.342;2023-03-23T04:00:23;5.57;;;1.50;;
5805;SDS011;2929;50.810;8.342;2023-03-23T04:02:50;1.60;;;1.40;;
5805;SDS011;2929;50.810;8.342;2023-03-23T04:05:31;2.53;;;1.33;;
5805;SDS011;2929;50.810;8.342;2023-03-23T04:07:59;2.00;;;1.57;;
5805;SDS011;2929;50.810;8.342;2023-03-23T04:10:30;5.00;;;1.70;;
5805;SDS011;2929;50.810;8.342;2023-03-23T04:12:59;2.90;;;1.97;;
5805;SDS011;2929;50.810;8.342;2023-03-23T04:15:45;2.67;;;1.87;;
5805;SDS011;2929;50.810;8.342;2023-03-23T04:18:12;7.40;;;2.00;;
5805;SDS011;2929;50.810;8.342;2023-03-23T04:20:44;8.30;;;2.30;;
5805;SDS011;2929;50.810;8.342;2023-03-23T04:23:17;5.00;;;1.97;;
5805;SDS011;2929;50.810;8.342;2023-03-23T04:25:47;3.47;;;2.00;;
5805;SDS011;2929;50.810;8.342;2023-03-23T04:28:15;3.40;;;2.23;;
5805;SDS011;2929;50.810;8.342;2023-03-23T04:30:57;3.33;;;1.97;;
5805;SDS011;2929;50.810;8.342;2023-03-23T04:33:26;2.67;;;2.23;;
5805;SDS011;2929;50.810;8.342;2023-03-23T04:35:56;4.20;;;2.10;;
5805;SDS011;2929;50.810;8.342;2023-03-23T04:38:38;4.57;;;2.10;;
5805;SDS011;2929;50.810;8.342;2023-03-23T04:41:12;3.93;;;1.93;;
5805;SDS011;2929;50.810;8.342;2023-03-23T04:43:50;1.60;;;1.50;;
5805;SDS011;2929;50.810;8.342;2023-03-23T04:46:28;3.20;;;1.87;;
5805;SDS011;2929;50.810;8.342;2023-03-23T04:49:00;3.70;;;1.83;;
5805;SDS011;2929;50.810;8.342;2023-03-23T04:51:35;2.50;;;1.70;;
5805;SDS011;2929;50.810;8.342;2023-03-23T04:54:24;3.60;;;2.00;;
5805;SDS011;2929;50.810;8.342;2023-03-23T04:56:55;2.77;;;1.80;;
5805;SDS011;2929;50.810;8.342;2023-03-23T04:59:24;2.23;;;1.33;;
5805;SDS011;2929;50.810;8.342;2023-03-23T05:02:06;1.83;;;1.63;;
5805;SDS011;2929;50.810;8.342;2023-03-23T05:04:34;2.33;;;1.80;;
5805;SDS011;2929;50.810;8.342;2023-03-23T05:07:07;2.50;;;1.57;;
5805;SDS011;2929;50.810;8.342;2023-03-23T05:09:46;4.20;;;1.67;;
5805;SDS011;2929;50.810;8.342;2023-03-23T05:12:15;3.37;;;1.70;;
5805;SDS011;2929;50.810;8.342;2023-03-23T05:14:51;1.80;;;1.50;;
5805;SDS011;2929;50.810;8.342;2023-03-23T05:17:20;2.53;;;1.30;;
5805;SDS011;2929;50.810;8.342;2023-03-23T05:19:50;1.83;;;1.47;;
5805;SDS011;2929;50.810;8.342;2023-03-23T05:22:40;4.80;;;1.97;;
5805;SDS011;2929;50.810;8.342;2023-03-23T05:25:11;5.07;;;2.00;;
5805;SDS011;2929;50.810;8.342;2023-03-23T05:27:43;2.63;;;1.90;;
5805;SDS011;2929;50.810;8.342;2023-03-23T05:30:36;2.00;;;1.80;;
5805;SDS011;2929;50.810;8.342;2023-03-23T05:33:05;2.83;;;1.50;;
5805;SDS011;2929;50.810;8.342;2023-03-23T05:35:48;2.80;;;1.90;;
5805;SDS011;2929;50.810;8.342;2023-03-23T05:38:19;6.93;;;2.00;;
5805;SDS011;2929;50.810;8.342;2023-03-23T05:40:49;1.90;;;1.70;;
5805;SDS011;2929;50.810;8.342;2023-03-23T05:43:23;4.77;;;1.83;;
5805;SDS011;2929;50.810;8.342;2023-03-23T05:46:26;1.87;;;1.77;;
5805;SDS011;2929;50.810;8.342;2023-03-23T05:48:57;2.93;;;1.90;;
5805;SDS011;2929;50.810;8.342;2023-03-23T05:51:31;2.83;;;2.17;;
5805;SDS011;2929;50.810;8.342;2023-03-23T05:53:58;2.30;;;1.80;;
5805;SDS011;2929;50.810;8.342;2023-03-23T05:56:27;3.00;;;1.80;;
5805;SDS011;2929;50.810;8.342;2023-03-23T05:59:28;7.60;;;2.33;;
5805;SDS011;2929;50.810;8.342;2023-03-23T06:01:57;5.33;;;2.00;;
5805;SDS011;2929;50.810;8.342;2023-03-23T06:04:25;2.73;;;2.00;;
5805;SDS011;2929;50.810;8.342;2023-03-23T06:07:13;2.07;;;1.90;;
5805;SDS011;2929;50.810;8.342;2023-03-23T06:09:49;4.27;;;2.27;;
5805;SDS011;2929;50.810;8.342;2023-03-23T06:12:36;3.93;;;1.67;;
5805;SDS011;2929;50.810;8.342;2023-03-23T06:15:25;7.33;;;2.37;;
5805;SDS011;2929;50.810;8.342;2023-03-23T06:17:57;2.97;;;2.63;;
5805;SDS011;2929;50.810;8.342;2023-03-23T06:20:29;1.83;;;1.73;;
5805;SDS011;2929;50.810;8.342;2023-03-23T06:22:59;1.80;;;1.70;;
5805;SDS011;2929;50.810;8.342;2023-03-23T06:25:30;2.63;;;1.80;;
5805;SDS011;2929;50.810;8.342;2023-03-23T06:27:59;4.97;;;2.40;;
5805;SDS011;2929;50.810;8.342;2023-03-23T06:30:26;2.07;;;1.80;;
5805;SDS011;2929;50.810;8.342;2023-03-23T06:32:55;3.40;;;2.10;;
5805;SDS011;2929;50.810;8.342;2023-03-23T06:35:42;7.63;;;1.67;;
5805;SDS011;2929;50.810;8.342;2023-03-23T06:38:20;2.83;;;1.90;;
5805;SDS011;2929;50.810;8.342;2023-03-23T06:40:52;1.60;;;1.50;;
5805;SDS011;2929;50.810;8.342;2023-03-23T06:43:24;2.67;;;1.70;;
5805;SDS011;2929;50.810;8.342;2023-03-23T06:46:21;4.23;;;2.00;;
5805;SDS011;2929;50.810;8.342;2023-03-23T06:48:51;2.33;;;1.80;;
5805;SDS011;2929;50.810;8.342;2023-03-23T06:51:24;2.80;;;1.67;;
5805;SDS011;2929;50.810;8.342;2023-03-23T06:53:54;3.70;;;1.67;;
5805;SDS011;2929;50.810;8.342;2023-03-23T06:56:23;2.57;;;1.80;;
5805;SDS011;2929;50.810;8.342;2023-03-23T06:58:52;1.60;;;1.40;;
5805;SDS011;2929;50.810;8.342;2023-03-23T07:01:21;2.53;;;1.40;;
5805;SDS011;2929;50.810;8.342;2023-03-23T07:03:55;1.80;;;1.67;;
5805;SDS011;2929;50.810;8.342;2023-03-23T07:06:34;2.63;;;1.47;;
5805;SDS011;2929;50.810;8.342;2023-03-23T07:09:01;3.20;;;1.80;;
5805;SDS011;2929;50.810;8.342;2023-03-23T07:11:30;1.87;;;1.73;;
5805;SDS011;2929;50.810;8.342;2023-03-23T07:14:06;3.30;;;1.70;;
5805;SDS011;2929;50.810;8.342;2023-03-23T07:16:33;2.00;;;1.80;;
5805;SDS011;2929;50.810;8.342;2023-03-23T07:19:00;1.93;;;1.67;;
5805;SDS011;2929;50.810;8.342;2023-03-23T07:21:28;3.57;;;1.60;;
5805;SDS011;2929;50.810;8.342;2023-03-23T07:23:55;2.20;;;1.60;;
5805;SDS011;2929;50.810;8.342;2023-03-23T07:26:37;2.93;;;1.63;;
5805;SDS011;2929;50.810;8.342;2023-03-23T07:29:04;2.80;;;1.80;;
5805;SDS011;2929;50.810;8.342;2023-03-23T07:31:37;2.60;;;1.90;;
5805;SDS011;2929;50.810;8.342;2023-03-23T07:34:05;2.03;;;1.70;;
5805;SDS011;2929;50.810;8.342;2023-03-23T07:36:51;4.07;;;2.13;;
5805;SDS011;2929;50.810;8.342;2023-03-23T07:39:19;3.63;;;1.80;;
5805;SDS011;2929;50.810;8.342;2023-03-23T07:41:47;2.27;;;1.80;;
5805;SDS011;2929;50.810;8.342;2023-03-23T07:44:21;3.77;;;1.70;;
5805;SDS011;2929;50.810;8.342;2023-03-23T07:46:50;1.77;;;1.67;;
5805;SDS011;2929;50.810;8.342;2023-03-23T07:49:26;4.23;;;1.77;;
5805;SDS011;2929;50.810;8.342;2023-03-23T07:52:04;3.90;;;2.10;;
5805;SDS011;2929;50.810;8.342;2023-03-23T07:54:31;5.07;;;1.60;;
5805;SDS011;2929;50.810;8.342;2023-03-23T07:57:04;2.70;;;1.60;;
5805;SDS011;2929;50.810;8.342;2023-03-23T07:59:38;3.53;;;1.77;;
5805;SDS011;2929;50.810;8.342;2023-03-23T08:02:07;2.57;;;1.43;;
5805;SDS011;2929;50.810;8.342;2023-03-23T08:04:55;2.43;;;1.70;;
5805;SDS011;2929;50.810;8.342;2023-03-23T08:07:31;1.80;;;1.70;;
5805;SDS011;2929;50.810;8.342;2023-03-23T08:10:06;2.60;;;1.60;;
5805;SDS011;2929;50.810;8.342;2023-03-23T08:12:55;3.10;;;1.87;;
5805;SDS011;2929;50.810;8.342;2023-03-23T08:15:52;2.80;;;2.03;;
5805;SDS011;2929;50.810;8.342;2023-03-23T08:18:48;3.40;;;1.60;;
5805;SDS011;2929;50.810;8.342;2023-03-23T08:21:34;2.60;;;1.80;;
5805;SDS011;2929;50.810;8.342;2023-03-23T08:24:34;1.83;;;1.40;;
5805;SDS011;2929;50.810;8.342;2023-03-23T08:27:21;5.10;;;1.80;;
5805;SDS011;2929;50.810;8.342;2023-03-23T08:30:06;1.97;;;1.40;;
5805;SDS011;2929;50.810;8.342;2023-03-23T08:33:11;3.33;;;1.73;;
5805;SDS011;2929;50.810;8.342;2023-03-23T08:35:59;3.10;;;1.87;;
5805;SDS011;2929;50.810;8.342;2023-03-23T08:38:46;1.57;;;1.30;;
5805;SDS011;2929;50.810;8.342;2023-03-23T08:41:32;4.20;;;1.60;;
5805;SDS011;2929;50.810;8.342;2023-03-23T08:44:11;4.30;;;2.07;;
5805;SDS011;2929;50.810;8.342;2023-03-23T08:47:10;6.77;;;1.60;;
5805;SDS011;2929;50.810;8.342;2023-03-23T08:49:55;2.63;;;1.50;;
5805;SDS011;2929;50.810;8.342;2023-03-23T08:52:47;1.80;;;1.57;;
5805;SDS011;2929;50.810;8.342;2023-03-23T08:55:47;3.17;;;1.73;;
5805;SDS011;2929;50.810;8.342;2023-03-23T08:58:25;2.80;;;1.30;;
5805;SDS011;2929;50.810;8.342;2023-03-23T09:01:11;4.23;;;1.90;;
5805;SDS011;2929;50.810;8.342;2023-03-23T09:03:58;2.47;;;1.50;;
5805;SDS011;2929;50.810;8.342;2023-03-23T09:06:30;3.07;;;1.47;;
5805;SDS011;2929;50.810;8.342;2023-03-23T09:08:58;2.20;;;1.50;;
5805;SDS011;2929;50.810;8.342;2023-03-23T09:11:25;3.80;;;1.30;;
5805;SDS011;2929;50.810;8.342;2023-03-23T09:13:53;3.73;;;1.40;;
5805;SDS011;2929;50.810;8.342;2023-03-23T09:16:20;2.47;;;1.70;;
5805;SDS011;2929;50.810;8.342;2023-03-23T09:18:47;3.30;;;1.83;;
5805;SDS011;2929;50.810;8.342;2023-03-23T09:21:15;3.00;;;1.57;;
5805;SDS011;2929;50.810;8.342;2023-03-23T09:23:44;3.57;;;1.73;;
5805;SDS011;2929;50.810;8.342;2023-03-23T09:26:12;1.90;;;1.20;;
5805;SDS011;2929;50.810;8.342;2023-03-23T09:28:39;4.00;;;1.70;;
5805;SDS011;2929;50.810;8.342;2023-03-23T09:31:06;4.53;;;1.47;;
5805;SDS011;2929;50.810;8.342;2023-03-23T09:33:33;2.30;;;1.30;;
5805;SDS011;2929;50.810;8.342;2023-03-23T09:36:00;2.90;;;1.60;;
5805;SDS011;2929;50.810;8.342;2023-03-23T09:38:30;6.50;;;1.70;;
5805;SDS011;2929;50.810;8.342;2023-03-23T09:41:01;4.20;;;1.60;;
5805;SDS011;2929;50.810;8.342;2023-03-23T09:43:46;1.60;;;1.50;;
5805;SDS011;2929;50.810;8.342;2023-03-23T09:46:33;4.60;;;1.50;;
5805;SDS011;2929;50.810;8.342;2023-03-23T09:49:08;3.80;;;1.40;;
5805;SDS011;2929;50.810;8.342;2023-03-23T09:51:41;2.50;;;1.77;;
5805;SDS011;2929;50.810;8.342;2023-03-23T09:54:11;1.93;;;1.83;;
5805;SDS011;2929;50.810;8.342;2023-03-23T09:56:45;5.17;;;1.80;;
5805;SDS011;2929;50.810;8.342;2023-03-23T09:59:16;5.47;;;1.70;;
5805;SDS011;2929;50.810;8.342;2023-03-23T10:01:47;4.70;;;2.13;;
5805;SDS011;2929;50.810;8.342;2023-03-23T10:04:19;2.87;;;2.50;;
5805;SDS011;2929;50.810;8.342;2023-03-23T10:06:53;4.00;;;2.13;;
5805;SDS011;2929;50.810;8.342;2023-03-23T10:09:25;4.20;;;1.60;;
5805;SDS011;2929;50.810;8.342;2023-03-23T10:12:04;1.87;;;1.50;;
5805;SDS011;2929;50.810;8.342;2023-03-23T10:14:43;3.70;;;1.70;;
5805;SDS011;2929;50.810;8.342;2023-03-23T10:17:29;2.57;;;1.30;;
5805;SDS011;2929;50.810;8.342;2023-03-23T10:20:05;4.90;;;1.57;;
5805;SDS011;2929;50.810;8.342;2023-03-23T10:22:45;3.87;;;1.47;;
5805;SDS011;2929;50.810;8.342;2023-03-23T10:25:19;4.33;;;1.60;;
5805;SDS011;2929;50.810;8.342;2023-03-23T10:27:52;3.20;;;1.90;;
5805;SDS011;2929;50.810;8.342;2023-03-23T10:30:27;2.40;;;1.40;;
5805;SDS011;2929;50.810;8.342;2023-03-23T10:32:57;4.97;;;1.60;;
5805;SDS011;2929;50.810;8.342;2023-03-23T10:35:29;2.63;;;1.53;;
5805;SDS011;2929;50.810;8.342;2023-03-23T10:38:03;2.00;;;1.13;;
5805;SDS011;2929;50.810;8.342;2023-03-23T10:40:32;3.40;;;1.30;;
5805;SDS011;2929;50.810;8.342;2023-03-23T10:43:14;2.37;;;1.23;;
5805;SDS011;2929;50.810;8.342;2023-03-23T10:45:41;1.53;;;1.43;;
5805;SDS011;2929;50.810;8.342;2023-03-23T10:48:13;2.37;;;1.50;;
5805;SDS011;2929;50.810;8.342;2023-03-23T10:50:44;3.53;;;1.60;;
5805;SDS011;2929;50.810;8.342;2023-03-23T10:53:15;2.20;;;1.30;;
5805;SDS011;2929;50.810;8.342;2023-03-23T10:55:44;1.37;;;1.17;;
5805;SDS011;2929;50.810;8.342;2023-03-23T10:58:21;2.83;;;1.60;;
5805;SDS011;2929;50.810;8.342;2023-03-23T11:00:50;3.50;;;1.30;;
5805;SDS011;2929;50.810;8.342;2023-03-23T11:03:23;3.20;;;1.47;;
5805;SDS011;2929;50.810;8.342;2023-03-23T11:05:56;3.20;;;1.60;;
5805;SDS011;2929;50.810;8.342;2023-03-23T11:08:25;2.17;;;1.43;;
5805;SDS011;2929;50.810;8.342;2023-03-23T11:10:55;3.03;;;1.23;;
5805;SDS011;2929;50.810;8.342;2023-03-23T11:13:28;1.67;;;1.40;;
5805;SDS011;2929;50.810;8.342;2023-03-23T11:15:57;5.20;;;1.43;;
5805;SDS011;2929;50.810;8.342;2023-03-23T11:18:25;2.60;;;1.40;;
5805;SDS011;2929;50.810;8.342;2023-03-23T11:21:01;4.30;;;1.63;;
5805;SDS011;2929;50.810;8.342;2023-03-23T11:23:31;1.17;;;1.10;;
5805;SDS011;2929;50.810;8.342;2023-03-23T11:26:01;1.30;;;1.20;;
5805;SDS011;2929;50.810;8.342;2023-03-23T11:28:43;2.30;;;1.60;;
5805;SDS011;2929;50.810;8.342;2023-03-23T11:31:15;2.43;;;1.10;;
5805;SDS011;2929;50.810;8.342;2023-03-23T11:33:48;1.70;;;0.93;;
5805;SDS011;2929;50.810;8.342;2023-03-23T11:36:19;2.40;;;1.03;;
5805;SDS011;2929;50.810;8.342;2023-03-23T11:38:51;2.20;;;1.27;;
5805;SDS011;2929;50.810;8.342;2023-03-23T11:41:22;1.00;;;0.90;;
5805;SDS011;2929;50.810;8.342;2023-03-23T11:44:02;2.60;;;1.00;;
5805;SDS011;2929;50.810;8.342;2023-03-23T11:46:37;2.87;;;1.00;;
5805;SDS011;2929;50.810;8.342;2023-03-23T11:49:12;0.70;;;0.70;;
5805;SDS011;2929;50.810;8.342;2023-03-23T11:51:47;1.60;;;1.07;;
5805;SDS011;2929;50.810;8.342;2023-03-23T11:54:19;3.40;;;1.17;;
5805;SDS011;2929;50.810;8.342;2023-03-23T11:56:53;1.20;;;1.07;;
5805;SDS011;2929;50.810;8.342;2023-03-23T11:59:27;4.13;;;1.50;;
5805;SDS011;2929;50.810;8.342;2023-03-23T12:01:57;1.43;;;1.10;;
5805;SDS011;2929;50.810;8.342;2023-03-23T12:04:33;1.03;;;0.90;;
5805;SDS011;2929;50.810;8.342;2023-03-23T12:07:13;0.93;;;0.90;;
5805;SDS011;2929;50.810;8.342;2023-03-23T12:09:51;1.97;;;1.30;;
5805;SDS011;2929;50.810;8.342;2023-03-23T12:12:27;1.47;;;0.80;;
5805;SDS011;2929;50.810;8.342;2023-03-23T12:15:02;3.20;;;1.00;;
5805;SDS011;2929;50.810;8.342;2023-03-23T12:17:40;2.60;;;1.57;;
5805;SDS011;2929;50.810;8.342;2023-03-23T12:20:18;2.47;;;1.20;;
5805;SDS011;2929;50.810;8.342;2023-03-23T12:22:55;0.80;;;0.80;;
5805;SDS011;2929;50.810;8.342;2023-03-23T12:25:42;1.37;;;0.80;;
5805;SDS011;2929;50.810;8.342;2023-03-23T12:28:21;0.87;;;0.87;;
5805;SDS011;2929;50.810;8.342;2023-03-23T12:30:59;1.07;;;0.97;;
5805;SDS011;2929;50.810;8.342;2023-03-23T12:33:34;1.63;;;1.10;;
5805;SDS011;2929;50.810;8.342;2023-03-23T12:36:15;3.30;;;1.17;;
5805;SDS011;2929;50.810;8.342;2023-03-23T12:38:56;1.17;;;1.00;;
5805;SDS011;2929;50.810;8.342;2023-03-23T12:41:45;2.80;;;1.10;;
5805;SDS011;2929;50.810;8.342;2023-03-23T12:44:20;1.17;;;1.17;;
5805;SDS011;2929;50.810;8.342;2023-03-23T12:46:57;1.63;;;1.03;;
5805;SDS011;2929;50.810;8.342;2023-03-23T12:49:34;0.70;;;0.70;;
5805;SDS011;2929;50.810;8.342;2023-03-23T12:52:08;4.13;;;1.20;;
5805;SDS011;2929;50.810;8.342;2023-03-23T12:54:41;0.87;;;0.87;;
5805;SDS011;2929;50.810;8.342;2023-03-23T12:57:18;1.00;;;0.90;;
5805;SDS011;2929;50.810;8.342;2023-03-23T12:59:50;5.03;;;1.13;;
5805;SDS011;2929;50.810;8.342;2023-03-23T13:02:23;2.80;;;1.00;;
5805;SDS011;2929;50.810;8.342;2023-03-23T13:04:55;0.80;;;0.80;;
5805;SDS011;2929;50.810;8.342;2023-03-23T13:07:28;2.57;;;1.60;;
5805;SDS011;2929;50.810;8.342;2023-03-23T13:10:01;1.00;;;0.80;;
5805;SDS011;2929;50.810;8.342;2023-03-23T13:12:32;1.97;;;1.30;;
5805;SDS011;2929;50.810;8.342;2023-03-23T13:15:06;1.70;;;1.27;;
5805;SDS011;2929;50.810;8.342;2023-03-23T13:17:46;1.03;;;0.97;;
5805;SDS011;2929;50.810;8.342;2023-03-23T13:20:32;2.80;;;0.83;;
5805;SDS011;2929;50.810;8.342;2023-03-23T13:23:11;2.63;;;1.20;;
5805;SDS011;2929;50.810;8.342;2023-03-23T13:25:50;1.27;;;0.80;;
5805;SDS011;2929;50.810;8.342;2023-03-23T13:28:22;1.77;;;0.90;;
5805;SDS011;2929;50.810;8.342;2023-03-23T13:30:57;2.00;;;0.80;;
5805;SDS011;2929;50.810;8.342;2023-03-23T13:33:30;1.10;;;0.90;;
5805;SDS011;2929;50.810;8.342;2023-03-23T13:36:02;1.33;;;0.70;;
5805;SDS011;2929;50.810;8.342;2023-03-23T13:38:33;1.70;;;0.80;;
5805;SDS011;2929;50.810;8.342;2023-03-23T13:41:06;1.20;;;1.07;;
5805;SDS011;2929;50.810;8.342;2023-03-23T13:43:36;1.27;;;0.93;;
5805;SDS011;2929;50.810;8.342;2023-03-23T13:46:09;0.80;;;0.80;;
5805;SDS011;2929;50.810;8.342;2023-03-23T13:48:41;2.30;;;1.07;;
5805;SDS011;2929;50.810;8.342;2023-03-23T13:51:25;3.27;;;0.93;;
5805;SDS011;2929;50.810;8.342;2023-03-23T13:54:06;2.13;;;0.90;;
5805;SDS011;2929;50.810;8.342;2023-03-23T13:56:41;1.47;;;0.77;;
5805;SDS011;2929;50.810;8.342;2023-03-23T13:59:13;1.90;;;1.07;;
5805;SDS011;2929;50.810;8.342;2023-03-23T14:01:41;3.13;;;0.90;;
5805;SDS011;2929;50.810;8.342;2023-03-23T14:04:13;3.13;;;0.80;;
5805;SDS011;2929;50.810;8.342;2023-03-23T14:06:44;3.00;;;1.10;;
5805;SDS011;2929;50.810;8.342;2023-03-23T14:09:19;1.10;;;1.00;;
5805;SDS011;2929;50.810;8.342;2023-03-23T14:11:51;1.87;;;0.80;;
5805;SDS011;2929;50.810;8.342;2023-03-23T14:14:23;2.00;;;0.90;;
5805;SDS011;2929;50.810;8.342;2023-03-23T14:16:53;2.10;;;0.90;;
5805;SDS011;2929;50.810;8.342;2023-03-23T14:19:37;2.87;;;0.93;;
5805;SDS011;2929;50.810;8.342;2023-03-23T14:22:05;0.87;;;0.87;;
5805;SDS011;2929;50.810;8.342;2023-03-23T14:24:45;2.90;;;1.17;;
5805;SDS011;2929;50.810;8.342;2023-03-23T14:27:14;3.47;;;1.00;;
5805;SDS011;2929;50.810;8.342;2023-03-23T14:29:42;2.40;;;0.90;;
5805;SDS011;2929;50.810;8.342;2023-03-23T14:32:11;1.17;;;0.90;;
5805;SDS011;2929;50.810;8.342;2023-03-23T14:34:43;1.37;;;0.90;;
5805;SDS011;2929;50.810;8.342;2023-03-23T14:37:14;2.13;;;1.20;;
5805;SDS011;2929;50.810;8.342;2023-03-23T14:39:43;1.73;;;0.90;;
5805;SDS011;2929;50.810;8.342;2023-03-23T14:42:14;2.37;;;1.30;;
5805;SDS011;2929;50.810;8.342;2023-03-23T14:44:44;2.50;;;0.90;;
5805;SDS011;2929;50.810;8.342;2023-03-23T14:47:16;2.20;;;1.13;;
5805;SDS011;2929;50.810;8.342;2023-03-23T14:49:53;2.03;;;1.00;;
5805;SDS011;2929;50.810;8.342;2023-03-23T14:52:22;1.00;;;0.90;;
5805;SDS011;2929;50.810;8.342;2023-03-23T14:54:51;5.43;;;1.20;;
5805;SDS011;2929;50.810;8.342;2023-03-23T14:57:19;3.03;;;0.93;;
5805;SDS011;2929;50.810;8.342;2023-03-23T14:59:53;1.80;;;0.90;;
5805;SDS011;2929;50.810;8.342;2023-03-23T15:02:22;4.30;;;1.00;;
5805;SDS011;2929;50.810;8.342;2023-03-23T15:04:53;4.73;;;0.80;;
5805;SDS011;2929;50.810;8.342;2023-03-23T15:07:24;2.40;;;1.00;;
5805;SDS011;2929;50.810;8.342;2023-03-23T15:09:57;2.90;;;0.90;;
5805;SDS011;2929;50.810;8.342;2023-03-23T15:12:26;8.77;;;1.10;;
5805;SDS011;2929;50.810;8.342;2023-03-23T15:14:56;1.80;;;0.80;;
5805;SDS011;2929;50.810;8.342;2023-03-23T15:17:25;2.83;;;1.03;;
5805;SDS011;2929;50.810;8.342;2023-03-23T15:19:56;1.33;;;1.00;;
5805;SDS011;2929;50.810;8.342;2023-03-23T15:22:24;1.43;;;1.00;;
5805;SDS011;2929;50.810;8.342;2023-03-23T15:25:01;3.10;;;1.23;;
5805;SDS011;2929;50.810;8.342;2023-03-23T15:27:31;1.20;;;0.87;;
5805;SDS011;2929;50.810;8.342;2023-03-23T15:30:12;1.10;;;1.00;;
5805;SDS011;2929;50.810;8.342;2023-03-23T15:32:42;2.03;;;1.13;;
5805;SDS011;2929;50.810;8.342;2023-03-23T15:35:13;5.90;;;1.13;;
5805;SDS011;2929;50.810;8.342;2023-03-23T15:37:46;2.40;;;1.47;;
5805;SDS011;2929;50.810;8.342;2023-03-23T15:40:15;2.87;;;0.90;;
5805;SDS011;2929;50.810;8.342;2023-03-23T15:42:44;1.10;;;0.80;;
5805;SDS011;2929;50.810;8.342;2023-03-23T15:45:22;2.40;;;1.60;;
5805;SDS011;2929;50.810;8.342;2023-03-23T15:47:51;3.03;;;1.00;;
5805;SDS011;2929;50.810;8.342;2023-03-23T15:50:32;2.10;;;1.17;;
5805;SDS011;2929;50.810;8.342;2023-03-23T15:53:00;1.57;;;1.07;;
5805;SDS011;2929;50.810;8.342;2023-03-23T15:55:38;3.93;;;0.97;;
5805;SDS011;2929;50.810;8.342;2023-03-23T15:58:08;1.90;;;1.30;;
5805;SDS011;2929;50.810;8.342;2023-03-23T16:00:37;6.13;;;1.20;;